Time;durP1;ratioP1;P1;durP2;ratioP2;P2;SDS_P1;SDS_P2;PMS_P1;PMS_P2;Temp;Humidity;BMP_temperature;BMP_pressure;BME280_temperature;BME280_humidity;BME280_pressure;Samples;Min_cycle;Max_cycle;Signal;HPM_P1;HPM_P2
2021/09/14 00:07:15;;;;;;;19.95;12.80;;;15.10;99.90;;;;;;20907977;28;20032;-56
2021/09/14 00:17:17;;;;;;;27.27;15.10;;;15.90;99.90;;;;;;20908027;28;20052;-56
2021/09/14 00:27:19;;;;;;;19.75;12.85;;;15.60;99.90;;;;;;20909247;28;20366;-55
2021/09/14 00:37:21;;;;;;;21.65;12.30;;;14.80;99.90;;;;;;20894888;28;20045;-55
2021/09/14 00:47:23;;;;;;;22.73;14.00;;;14.20;99.90;;;;;;20990743;28;20485;-57
2021/09/14 00:57:25;;;;;;;25.92;15.30;;;13.70;99.90;;;;;;20974509;28;20149;-56
2021/09/14 01:07:27;;;;;;;28.92;16.90;;;13.40;99.90;;;;;;20973232;28;20041;-53
2021/09/14 01:17:29;;;;;;;31.65;15.57;;;13.20;99.90;;;;;;20954691;28;20106;-57
2021/09/14 01:27:31;;;;;;;27.45;17.83;;;13.10;99.90;;;;;;20989000;28;20036;-56
2021/09/14 01:37:33;;;;;;;35.92;23.15;;;12.80;99.90;;;;;;20976557;28;20086;-55
2021/09/14 01:47:36;;;;;;;30.80;16.45;;;12.70;99.90;;;;;;20984938;28;20037;-55
2021/09/14 01:57:40;;;;;;;31.10;17.42;;;12.70;99.90;;;;;;21008076;28;20371;-57
2021/09/14 02:59:24;;;;;;;25.52;16.08;;;12.50;99.90;;;;;;20979724;28;20094;-56
2021/09/14 03:09:26;;;;;;;27.65;17.30;;;12.50;99.90;;;;;;20980163;28;20486;-53
2021/09/14 03:19:28;;;;;;;23.67;15.35;;;12.50;99.90;;;;;;20998585;28;20028;-58
2021/09/14 03:29:33;;;;;;;26.65;15.57;;;12.70;99.90;;;;;;20978070;28;20555;-57
2021/09/14 03:39:35;;;;;;;23.95;15.88;;;12.90;99.90;;;;;;20993223;28;20062;-55
2021/09/14 03:49:42;;;;;;;24.63;14.07;;;12.90;99.90;;;;;;20976373;28;20556;-54
2021/09/14 03:59:44;;;;;;;23.67;15.05;;;13.00;99.90;;;;;;20974507;28;20040;-56
2021/09/14 04:09:53;;;;;;;22.95;14.60;;;12.80;99.90;;;;;;20975928;28;20035;-53
2021/09/14 04:19:55;;;;;;;21.90;14.65;;;12.70;99.90;;;;;;20974126;28;20039;-57
2021/09/14 04:29:57;;;;;;;22.13;14.25;;;12.60;99.90;;;;;;20971663;28;20089;-53
2021/09/14 04:39:59;;;;;;;25.73;16.90;;;12.70;99.90;;;;;;20971208;28;20490;-55
2021/09/14 04:50:02;;;;;;;24.83;16.55;;;12.50;99.90;;;;;;20991512;28;20036;-54
2021/09/14 05:00:07;;;;;;;24.50;15.90;;;12.20;99.90;;;;;;20970995;28;20090;-53
2021/09/14 05:10:12;;;;;;;21.23;16.15;;;12.20;99.90;;;;;;20969969;28;20066;-55
2021/09/14 05:20:21;;;;;;;22.23;15.70;;;12.20;99.90;;;;;;20988141;28;20040;-53
2021/09/14 05:30:23;;;;;;;16.70;10.95;;;12.50;99.90;;;;;;20987951;28;20098;-53
2021/09/14 05:40:25;;;;;;;16.25;10.98;;;12.70;99.90;;;;;;20985890;28;20047;-57
2021/09/14 05:50:29;;;;;;;18.58;12.13;;;12.70;99.90;;;;;;20968744;28;20074;-56
2021/09/14 06:00:32;;;;;;;23.20;13.20;;;12.90;99.90;;;;;;20968529;28;20036;-55
2021/09/14 06:10:34;;;;;;;24.15;15.25;;;13.00;99.90;;;;;;20985426;28;20428;-57
2021/09/14 06:20:46;;;;;;;26.65;15.38;;;13.20;99.90;;;;;;20969709;28;20040;-53
2021/09/14 06:30:51;;;;;;;22.63;13.43;;;13.70;99.90;;;;;;20981606;28;20067;-52
2021/09/14 06:40:57;;;;;;;20.37;13.17;;;14.10;99.90;;;;;;20979694;28;20094;-56
2021/09/14 06:51:06;;;;;;;20.30;13.18;;;14.40;99.90;;;;;;20979915;28;20355;-54
2021/09/14 07:01:08;;;;;;;18.83;12.20;;;15.20;99.90;;;;;;20996198;28;20037;-55
2021/09/14 07:11:10;;;;;;;16.17;11.63;;;16.40;99.90;;;;;;20995653;28;20044;-54
2021/09/14 07:21:12;;;;;;;20.08;11.73;;;17.70;99.90;;;;;;20995863;28;20036;-56
2021/09/14 07:31:15;;;;;;;15.73;10.73;;;18.80;99.90;;;;;;20993779;28;20058;-57
2021/09/14 07:41:17;;;;;;;15.38;11.52;;;19.70;99.90;;;;;;20992414;28;20037;-57
2021/09/14 07:51:19;;;;;;;15.45;11.65;;;20.60;99.90;;;;;;20991881;28;20040;-55
2021/09/14 08:01:21;;;;;;;14.80;10.77;;;21.20;97.10;;;;;;20991666;28;20110;-56
2021/09/14 08:11:23;;;;;;;17.88;11.10;;;21.60;96.40;;;;;;20990777;28;20040;-53
2021/09/14 08:21:24;;;;;;;8.50;6.30;;;22.00;95.40;;;;;;20989994;28;20539;-58
2021/09/14 08:31:26;;;;;;;12.27;7.72;;;22.30;93.30;;;;;;20989080;28;20032;-57
2021/09/14 08:41:28;;;;;;;12.77;8.60;;;22.60;91.70;;;;;;20988188;28;20047;-54
2021/09/14 08:51:30;;;;;;;12.10;8.70;;;22.80;91.90;;;;;;20980560;28;20033;-58
2021/09/14 09:01:33;;;;;;;11.15;8.20;;;22.90;90.50;;;;;;20988877;28;20482;-54
2021/09/14 09:11:35;;;;;;;7.65;6.15;;;23.20;89.80;;;;;;20986841;28;20051;-57
2021/09/14 09:21:39;;;;;;;9.25;6.10;;;23.50;87.70;;;;;;20986720;28;20037;-57
2021/09/14 09:31:47;;;;;;;6.50;4.40;;;23.70;84.30;;;;;;20986359;28;20040;-54
2021/09/14 09:41:54;;;;;;;5.18;4.40;;;24.20;82.30;;;;;;20986605;28;20165;-53
2021/09/14 09:51:57;;;;;;;5.32;3.80;;;24.50;84.20;;;;;;20985218;28;20482;-56
2021/09/14 10:02:21;;;;;;;5.13;3.28;;;24.90;80.90;;;;;;20998006;28;20032;-56
2021/09/14 10:12:29;;;;;;;4.40;3.22;;;25.10;78.70;;;;;;21004410;28;20033;-57
2021/09/14 10:22:31;;;;;;;6.03;4.23;;;25.00;79.40;;;;;;20999746;28;20041;-53
2021/09/14 10:32:44;;;;;;;6.80;4.75;;;25.00;80.60;;;;;;20997546;28;20363;-57
2021/09/14 10:42:47;;;;;;;7.70;5.07;;;25.40;79.50;;;;;;20997931;28;20090;-51
2021/09/14 10:52:51;;;;;;;6.32;4.95;;;25.50;78.30;;;;;;20978878;28;20045;-56
2021/09/14 11:02:58;;;;;;;6.07;5.07;;;25.40;78.60;;;;;;20995867;28;20738;-54
2021/09/14 11:13:00;;;;;;;3.80;3.17;;;25.60;79.20;;;;;;20994781;28;20091;-54
2021/09/14 11:23:03;;;;;;;12.50;7.35;;;25.40;79.50;;;;;;20994818;28;20037;-56
2021/09/14 11:33:05;;;;;;;8.68;6.88;;;25.90;78.70;;;;;;20994105;28;20052;-53
2021/09/14 11:43:10;;;;;;;11.50;6.47;;;26.20;80.30;;;;;;20993088;28;20556;-55
2021/09/14 11:53:19;;;;;;;12.90;8.07;;;26.10;80.50;;;;;;20992143;28;20041;-55
2021/09/14 12:03:21;;;;;;;10.40;8.57;;;26.10;80.00;;;;;;20991535;28;20075;-53
2021/09/14 12:13:24;;;;;;;12.60;8.48;;;25.90;80.20;;;;;;20989238;28;20094;-58
2021/09/14 12:23:25;;;;;;;13.88;8.57;;;25.90;80.30;;;;;;20989087;28;20033;-59
2021/09/14 12:33:27;;;;;;;11.73;8.38;;;26.00;80.10;;;;;;20970394;28;20549;-58
2021/09/14 12:43:29;;;;;;;16.63;8.07;;;25.70;80.70;;;;;;20988334;28;20569;-59
2021/09/14 12:53:31;;;;;;;12.02;8.32;;;25.50;81.40;;;;;;20987375;28;20083;-56
2021/09/14 13:03:33;;;;;;;11.23;7.40;;;25.10;80.00;;;;;;20987968;28;20473;-57
2021/09/14 13:23:56;;;;;;;10.05;6.93;;;24.50;79.10;;;;;;20986392;28;20032;-56
2021/09/14 13:33:58;;;;;;;11.45;6.68;;;24.40;80.20;;;;;;20993855;28;20412;-53
2021/09/14 13:46:10;;;;;;;8.25;6.43;;;24.20;81.10;;;;;;21002407;28;20478;-59
2021/09/14 13:54:22;;;;;;;24.80;7.85;;;24.20;80.20;;;;;;21001876;28;20040;-55
2021/09/14 14:04:24;;;;;;;11.40;7.45;;;24.40;78.60;;;;;;21001338;28;20039;-59
2021/09/14 14:14:26;;;;;;;11.63;8.27;;;24.10;78.90;;;;;;20999806;28;20035;-59
2021/09/14 14:24:28;;;;;;;15.32;8.93;;;23.80;79.70;;;;;;21000061;28;20024;-59
2021/09/14 14:34:29;;;;;;;14.82;9.80;;;23.00;81.30;;;;;;21001003;28;20036;-58
2021/09/14 14:44:32;;;;;;;22.67;12.23;;;22.20;84.80;;;;;;21000306;28;20093;-56
2021/09/14 14:54:33;;;;;;;22.70;13.00;;;21.70;87.90;;;;;;21076881;28;20036;-55
2021/09/14 15:04:35;;;;;;;19.13;12.40;;;21.50;88.80;;;;;;21082280;28;20031;-57
2021/09/14 15:14:37;;;;;;;16.60;9.55;;;21.40;89.90;;;;;;21079548;28;20543;-58
2021/09/14 15:24:39;;;;;;;19.77;8.95;;;21.20;89.10;;;;;;21081336;28;20531;-57
2021/09/14 15:34:42;;;;;;;11.07;7.90;;;20.90;89.10;;;;;;21082742;28;20035;-54
2021/09/14 15:44:43;;;;;;;14.18;9.50;;;20.80;89.70;;;;;;21013330;28;20036;-59
2021/09/14 15:54:45;;;;;;;17.10;11.07;;;20.50;90.60;;;;;;20994971;28;20378;-59
2021/09/14 16:04:48;;;;;;;16.25;11.57;;;20.20;91.70;;;;;;20997769;28;20029;-56
2021/09/14 16:14:50;;;;;;;21.33;12.45;;;19.80;92.50;;;;;;20996885;28;20431;-59
2021/09/14 16:24:53;;;;;;;20.80;12.93;;;19.30;93.60;;;;;;20996042;28;20422;-59
2021/09/14 16:34:55;;;;;;;20.42;12.07;;;18.80;95.20;;;;;;20979372;28;20494;-57
2021/09/14 16:44:57;;;;;;;26.52;13.73;;;18.20;95.50;;;;;;20999864;28;20169;-58
2021/09/14 16:55:00;;;;;;;17.73;12.35;;;17.60;97.00;;;;;;21002302;28;20033;-59
2021/09/14 17:05:07;;;;;;;20.92;12.98;;;17.00;98.70;;;;;;20997823;28;20036;-55
2021/09/14 17:15:09;;;;;;;17.83;12.40;;;16.30;99.90;;;;;;20964664;28;20075;-59
2021/09/14 17:25:12;;;;;;;27.73;17.48;;;15.70;99.90;;;;;;20999577;28;20562;-58
2021/09/14 17:35:15;;;;;;;22.25;13.90;;;15.20;99.90;;;;;;20996228;28;20036;-55
2021/09/14 17:45:17;;;;;;;24.23;15.02;;;14.80;99.90;;;;;;20990298;28;20044;-57
2021/09/14 17:55:21;;;;;;;22.75;14.15;;;14.70;99.90;;;;;;20990944;28;20040;-58
2021/09/14 18:05:25;;;;;;;26.52;15.15;;;14.70;99.90;;;;;;20988884;28;20036;-55
2021/09/14 18:15:34;;;;;;;23.67;15.00;;;14.70;99.90;;;;;;20988688;28;20097;-56
2021/09/14 18:25:36;;;;;;;30.92;20.27;;;14.60;99.90;;;;;;21001259;28;20037;-56
2021/09/14 18:35:38;;;;;;;25.05;14.40;;;14.30;99.90;;;;;;21004096;28;20029;-56
2021/09/14 18:45:43;;;;;;;21.45;13.77;;;14.30;99.90;;;;;;21006150;28;20040;-58
2021/09/14 18:55:48;;;;;;;18.50;12.18;;;14.20;99.90;;;;;;20983030;28;20044;-56
2021/09/14 19:05:52;;;;;;;22.42;12.95;;;14.20;99.90;;;;;;20999876;28;20028;-57
2021/09/14 19:15:57;;;;;;;18.92;11.65;;;14.10;99.90;;;;;;20998515;28;20021;-55
2021/09/14 19:26:00;;;;;;;18.77;10.55;;;14.00;99.90;;;;;;21003356;28;20035;-57
2021/09/14 19:36:07;;;;;;;19.02;11.07;;;14.00;99.90;;;;;;21002288;28;20109;-53
2021/09/14 19:46:09;;;;;;;14.68;9.63;;;14.00;99.90;;;;;;21004835;28;20040;-56
2021/09/14 19:56:13;;;;;;;16.98;8.90;;;14.00;99.90;;;;;;21004661;28;20045;-57
2021/09/14 20:06:16;;;;;;;11.65;7.88;;;13.90;99.90;;;;;;20986249;28;20071;-56
2021/09/14 20:16:19;;;;;;;12.15;7.50;;;13.80;99.90;;;;;;21005588;28;20473;-56
2021/09/14 20:26:22;;;;;;;10.70;7.38;;;13.60;99.90;;;;;;21003953;28;20035;-58
2021/09/14 20:36:25;;;;;;;11.63;7.65;;;13.60;99.90;;;;;;21003856;28;20529;-54
2021/09/14 20:46:27;;;;;;;11.18;7.28;;;13.50;99.90;;;;;;20982797;28;20118;-53
2021/09/14 20:56:29;;;;;;;11.82;7.63;;;13.30;99.90;;;;;;21086261;28;20032;-54
2021/09/14 21:06:31;;;;;;;9.98;6.80;;;13.30;99.90;;;;;;21087309;28;20044;-55
2021/09/14 21:16:34;;;;;;;10.80;7.50;;;13.20;99.90;;;;;;21083074;28;20474;-56
2021/09/14 21:26:36;;;;;;;12.77;7.10;;;13.10;99.90;;;;;;21079851;28;20024;-56
2021/09/14 21:36:38;;;;;;;14.75;8.95;;;13.10;99.90;;;;;;21078616;28;20168;-56
2021/09/14 21:46:42;;;;;;;12.98;7.63;;;12.90;99.90;;;;;;21075667;28;20394;-52
2021/09/14 21:56:45;;;;;;;10.82;7.13;;;13.20;99.90;;;;;;21082216;28;20032;-55
2021/09/14 22:06:47;;;;;;;9.75;5.07;;;13.20;99.90;;;;;;21087109;28;20032;-56
2021/09/14 22:16:51;;;;;;;8.77;5.93;;;13.00;99.90;;;;;;21085327;28;20381;-53
2021/09/14 22:26:54;;;;;;;8.88;5.65;;;12.80;99.90;;;;;;21083857;28;20073;-57
2021/09/14 22:36:56;;;;;;;8.93;6.03;;;12.90;99.90;;;;;;21084112;28;20036;-56
2021/09/14 22:46:58;;;;;;;12.05;7.78;;;12.90;99.90;;;;;;21082475;28;20052;-56
2021/09/14 22:57:02;;;;;;;10.43;6.25;;;12.90;99.90;;;;;;21081974;28;20067;-57
2021/09/14 23:07:04;;;;;;;10.18;6.57;;;13.00;99.90;;;;;;21080794;28;20538;-55
2021/09/14 23:17:06;;;;;;;10.60;6.75;;;13.00;99.90;;;;;;21080556;28;20389;-54
2021/09/14 23:27:09;;;;;;;9.05;5.63;;;13.20;99.90;;;;;;21079577;28;20032;-57
2021/09/14 23:37:11;;;;;;;13.35;7.60;;;13.40;99.90;;;;;;21078329;28;20108;-57
2021/09/14 23:47:13;;;;;;;12.45;5.72;;;13.50;99.90;;;;;;21079305;28;20028;-56
2021/09/14 23:57:15;;;;;;;8.75;5.13;;;13.40;99.90;;;;;;21076946;28;20051;-56
